Kaprifol — 5BXX2 — position and weather

sailwx.info

Track history (hours):
 
Tides and Currents Weather Stations Pressure Air Temp Water Temp Dewpoint Dewpoint Depression Visibility Wind Speed Wind Dir Waves Ship Positions

Kaprifol

Last reported at 2017-Apr-28 11:17 UTC. Time now 2017-Apr-28 12:23 UTC.
Position N 54°41' E 012°13'.

Length 90 m; draft 4.5 m.

Type: Tanker. MMSI: 210445000.

Date/timePositionNaut miles runAvg speedWind from/ knotsBaromVisibWave heightAir tempDewpointWater temp
2017-Apr-28 11:17N 54°41' E 012°13'310.4
2017-Apr-28 11:00N 54°38' E 012°14'510.1
2017-Apr-28 10:30N 54°33' E 012°15'13 9.8
2017-Apr-28 09:11N 54°21' E 012°07'210.2
2017-Apr-28 09:00N 54°19' E 012°06'510.4
2017-Apr-28 08:30N 54°14' E 012°05'5 6.7
2017-Apr-28 07:48N 54°10' E 012°08'0 0.1
2017-Apr-28 06:29N 54°10' E 012°08'0 0.0
2017-Apr-28 03:49N 54°10' E 012°08'0 0.0
2017-Apr-28 02:58N 54°10' E 012°08'0 0.0
2017-Apr-28 02:22N 54°10' E 012°08'0 0.0
2017-Apr-27 21:58N 54°10' E 012°08'0 0.0
2017-Apr-27 20:40N 54°10' E 012°08'0 0.0
2017-Apr-27 20:11N 54°10' E 012°08'0 1.2
2017-Apr-27 19:48N 54°10' E 012°08'1 2.7
2017-Apr-27 19:29N 54°10' E 012°06'6 8.7
2017-Apr-27 18:46N 54°15' E 012°02'310.4
2017-Apr-27 18:31N 54°18' E 012°01'510.7
2017-Apr-27 18:00N 54°22' E 012°07'510.4
2017-Apr-27 17:31N 54°27' E 012°10'611.4
2017-Apr-27 17:00N 54°33' E 012°13'510.6
2017-Apr-27 16:30N 54°37' E 012°18'510.7
2017-Apr-27 16:01N 54°40' E 012°25'5510.2
2017-Apr-27 10:38N 54°45' E 013°60'32 9.5
2017-Apr-27 07:12N 54°44' E 014°56'28 9.5
2017-Apr-27 04:12N 55°04' E 015°32'210.4
2017-Apr-27 04:01N 55°06' E 015°32'710.6
2017-Apr-27 03:23N 55°12' E 015°34'410.8
2017-Apr-27 03:00N 55°16' E 015°35'710.6
2017-Apr-27 02:22N 55°23' E 015°33'410.3
2017-Apr-27 02:00N 55°27' E 015°31'510.8
2017-Apr-27 01:30N 55°30' E 015°25'510.4
2017-Apr-27 00:59N 55°33' E 015°17'510.5
2017-Apr-27 00:29N 55°32' E 015°08'510.5
2017-Apr-27 00:00N 55°31' E 014°59'510.5
2017-Apr-26 23:30N 55°30' E 014°50'610.6
2017-Apr-26 22:59N 55°25' E 014°44'510.5
2017-Apr-26 22:30N 55°22' E 014°38'510.5
2017-Apr-26 21:59N 55°17' E 014°32'510.3
2017-Apr-26 21:30N 55°14' E 014°27'510.2
2017-Apr-26 21:00N 55°10' E 014°21'5 9.7
2017-Apr-26 20:30N 55°09' E 014°12'510.3
2017-Apr-26 20:00N 55°10' E 014°03'510.4
2017-Apr-26 19:30N 55°10' E 013°54'2010.4
2017-Apr-26 17:34N 55°12' E 013°19'110.4
2017-Apr-26 17:27N 55°12' E 013°17'510.3
2017-Apr-26 16:59N 55°12' E 013°08'510.5
2017-Apr-26 16:31N 55°13' E 012°60'510.7
2017-Apr-26 16:01N 55°15' E 012°51'511.0
2017-Apr-26 15:30N 55°17' E 012°42'4 8.9
2017-Apr-26 15:00N 55°21' E 012°39'510.3
2017-Apr-26 14:30N 55°26' E 012°40'9 9.5
2017-Apr-26 13:30N 55°36' E 012°42'4 9.0
2017-Apr-26 13:01N 55°40' E 012°41'5 9.9
2017-Apr-26 12:30N 55°45' E 012°41'510.2
2017-Apr-26 12:01N 55°50' E 012°40'510.3
2017-Apr-26 11:30N 55°55' E 012°38'510.4
2017-Apr-26 11:01N 56°00' E 012°38'4 9.0
2017-Apr-26 10:30N 56°05' E 012°36'510.4
2017-Apr-26 10:00N 56°08' E 012°28'75 4.1
2017-Apr-25 15:41N 56°09' E 010°14'0 0.0
2017-Apr-25 15:20N 56°09' E 010°14'0 0.0
2017-Apr-25 14:56N 56°09' E 010°14'0 0.0
2017-Apr-25 13:56N 56°09' E 010°14'0 0.0
2017-Apr-25 13:26N 56°09' E 010°14'0 0.0
2017-Apr-25 12:50N 56°09' E 010°14'0 0.0
2017-Apr-25 12:26N 56°09' E 010°14'0 0.0
2017-Apr-25 11:05N 56°09' E 010°14'0 0.0
2017-Apr-25 10:56N 56°09' E 010°14'0 0.0
2017-Apr-25 02:29N 56°09' E 010°14'0 0.1
2017-Apr-25 01:59N 56°09' E 010°14'0 0.2
2017-Apr-25 01:23N 56°09' E 010°14'1 1.9
2017-Apr-25 01:00N 56°10' E 010°15'4 8.0
2017-Apr-25 00:30N 56°08' E 010°21'5 9.9
2017-Apr-25 00:00N 56°06' E 010°29'5 9.5
2017-Apr-24 23:29N 56°05' E 010°39'7 8.6
2017-Apr-24 22:37N 56°11' E 010°47'110.1
2017-Apr-24 22:30N 56°12' E 010°48'60 7.4
2017-Apr-24 14:27N 57°05' E 011°40'910.0
2017-Apr-24 13:30N 57°14' E 011°34'510.0
2017-Apr-24 13:00N 57°18' E 011°30'510.2
2017-Apr-24 12:30N 57°23' E 011°27'510.0
2017-Apr-24 12:00N 57°28' E 011°24'510.7
2017-Apr-24 11:30N 57°32' E 011°17'510.4
2017-Apr-24 11:00N 57°35' E 011°10'510.5
2017-Apr-24 10:30N 57°39' E 011°03'510.4
2017-Apr-24 09:59N 57°42' E 010°55'510.2
2017-Apr-24 09:30N 57°46' E 010°49'510.5
2017-Apr-24 09:00N 57°47' E 010°40'9511.3
2017-Apr-24 00:37N 57°42' E 007°42'111.1
2017-Apr-24 00:30N 57°42' E 007°39'611.0
2017-Apr-24 00:00N 57°42' E 007°29'510.9
2017-Apr-23 23:30N 57°43' E 007°19'510.6
2017-Apr-23 23:00N 57°43' E 007°09'611.2
2017-Apr-23 22:29N 57°43' E 006°58'611.7
2017-Apr-23 22:00N 57°44' E 006°47'611.0
2017-Apr-23 21:28N 57°44' E 006°37'510.3
2017-Apr-23 21:00N 57°46' E 006°29'510.3
2017-Apr-23 20:30N 57°49' E 006°21'610.4
2017-Apr-23 19:56N 57°53' E 006°13'4 9.9
2017-Apr-23 19:30N 57°57' E 006°08'5 9.6
2017-Apr-23 19:00N 57°60' E 006°01'21 9.9
2017-Apr-23 16:51N 58°13' E 005°29'1310.1
2017-Apr-23 15:36N 58°22' E 005°12'310.1
2017-Apr-23 15:17N 58°24' E 005°08'310.2
2017-Apr-23 15:00N 58°26' E 005°04'610.3
2017-Apr-23 14:27N 58°30' E 004°57'910.0
2017-Apr-23 13:30N 58°37' E 004°44'510.3
2017-Apr-23 12:58N 58°41' E 004°37'510.6
2017-Apr-23 12:29N 58°45' E 004°30'233 9.4
2017-Apr-22 11:45N 62°37' E 005°10'2 9.0
2017-Apr-22 11:30N 62°38' E 005°13'5 9.0
2017-Apr-22 11:00N 62°42' E 005°20'4 9.1
2017-Apr-22 10:30N 62°45' E 005°27'5 9.5
2017-Apr-22 09:59N 62°48' E 005°34'33 8.7
2017-Apr-22 06:12N 63°09' E 006°31'2 8.1
2017-Apr-22 06:00N 63°10' E 006°34'4 7.9
2017-Apr-22 05:30N 63°11' E 006°42'4 7.5
2017-Apr-22 05:00N 63°11' E 006°51'4 7.6
2017-Apr-22 04:29N 63°12' E 006°59'4 7.8
2017-Apr-22 04:00N 63°13' E 007°07'4 7.6
2017-Apr-22 03:30N 63°13' E 007°16'4 7.5
2017-Apr-22 03:00N 63°14' E 007°24'4 7.4
2017-Apr-22 02:30N 63°15' E 007°32'4 7.8
2017-Apr-22 02:00N 63°14' E 007°40'5 9.1
2017-Apr-22 01:30N 63°13' E 007°50'510.0
2017-Apr-22 01:00N 63°15' E 008°01'510.3
2017-Apr-22 00:30N 63°17' E 008°11'510.6
2017-Apr-21 23:59N 63°21' E 008°20'510.0
2017-Apr-21 23:30N 63°24' E 008°29'5 9.8
2017-Apr-21 23:00N 63°26' E 008°39'5 9.8
2017-Apr-21 22:29N 63°27' E 008°50'5 9.8
2017-Apr-21 22:00N 63°29' E 008°60'5 9.5
2017-Apr-21 21:30N 63°31' E 009°09'4 8.9
2017-Apr-21 21:00N 63°34' E 009°16'510.9
2017-Apr-21 20:30N 63°40' E 009°15'510.1
2017-Apr-21 20:00N 63°44' E 009°22'510.4
2017-Apr-21 19:30N 63°46' E 009°32'510.3
2017-Apr-21 19:00N 63°51' E 009°38'5 9.1
2017-Apr-21 18:30N 63°53' E 009°48'2 4.7
2017-Apr-21 18:00N 63°53' E 009°53'0 0.6
2017-Apr-21 17:30N 63°53' E 009°52'0 0.0
2017-Apr-21 17:00N 63°53' E 009°52'0 0.0
2017-Apr-21 16:27N 63°53' E 009°52'0 0.0
2017-Apr-21 16:00N 63°53' E 009°52'0 0.0
2017-Apr-21 15:30N 63°53' E 009°52'0 0.0
2017-Apr-21 15:00N 63°53' E 009°52'0 0.0
2017-Apr-21 14:29N 63°53' E 009°52'0 0.0
2017-Apr-21 13:30N 63°53' E 009°52'0 0.0
2017-Apr-21 13:00N 63°53' E 009°52'0 0.0
2017-Apr-21 12:30N 63°53' E 009°52'0 0.0
2017-Apr-21 12:00N 63°53' E 009°52'0 0.0
2017-Apr-21 11:30N 63°53' E 009°52'0 0.0
2017-Apr-21 11:00N 63°53' E 009°52'0 0.0
2017-Apr-21 10:30N 63°53' E 009°52'0 0.0
2017-Apr-21 10:01N 63°53' E 009°52'0 0.0
2017-Apr-21 09:30N 63°53' E 009°52'0 0.0
2017-Apr-21 09:00N 63°53' E 009°52'0 0.0
2017-Apr-21 08:30N 63°53' E 009°52'0 0.0
2017-Apr-21 07:59N 63°53' E 009°52'0 0.0
2017-Apr-21 07:30N 63°53' E 009°52'0 0.0
2017-Apr-21 07:00N 63°53' E 009°52'0 0.0
2017-Apr-21 06:30N 63°53' E 009°52'0 0.0
2017-Apr-21 06:00N 63°53' E 009°52'0 0.0
2017-Apr-21 05:30N 63°53' E 009°52'0 0.0
2017-Apr-21 05:00N 63°53' E 009°52'0 0.0
2017-Apr-21 04:30N 63°53' E 009°52'0 0.0
2017-Apr-21 04:00N 63°53' E 009°52'0 0.0
2017-Apr-21 03:30N 63°53' E 009°52'0 0.0
2017-Apr-21 03:00N 63°53' E 009°52'0 0.0
2017-Apr-21 02:29N 63°53' E 009°52'0 0.0
2017-Apr-21 02:00N 63°53' E 009°52'0 0.0
2017-Apr-21 01:30N 63°53' E 009°52'0 0.0
2017-Apr-21 01:00N 63°53' E 009°52'0 0.0
2017-Apr-21 00:30N 63°53' E 009°52'0 0.0
2017-Apr-21 00:00N 63°53' E 009°52'0 0.0
2017-Apr-20 23:30N 63°53' E 009°52'0 0.0
2017-Apr-20 23:00N 63°53' E 009°52'0 0.0
2017-Apr-20 22:30N 63°53' E 009°52'0 0.0
2017-Apr-20 22:00N 63°53' E 009°52'0 0.0
2017-Apr-20 21:30N 63°53' E 009°52'0 0.0
2017-Apr-20 21:00N 63°53' E 009°52'0 0.0
2017-Apr-20 20:30N 63°53' E 009°52'0 0.0
2017-Apr-20 20:00N 63°53' E 009°52'0 0.0
2017-Apr-20 19:30N 63°53' E 009°52'0 0.0
2017-Apr-20 19:00N 63°53' E 009°52'0 0.0
2017-Apr-20 18:30N 63°53' E 009°52'0 0.0
2017-Apr-20 18:00N 63°53' E 009°52'0 0.0
2017-Apr-20 17:30N 63°53' E 009°52'0 0.0
2017-Apr-20 17:00N 63°53' E 009°52'0 0.0
2017-Apr-20 16:30N 63°53' E 009°52'0 0.0
2017-Apr-20 16:00N 63°53' E 009°52'0 0.0
2017-Apr-20 15:30N 63°53' E 009°52'1 2.2
2017-Apr-20 15:00N 63°54' E 009°53'5 9.3
2017-Apr-20 14:30N 63°52' E 009°43'1110.8
2017-Apr-20 13:30N 63°45' E 009°26'611.9
2017-Apr-20 13:00N 63°41' E 009°16'611.3
2017-Apr-20 12:30N 63°35' E 009°16'611.2
2017-Apr-20 12:00N 63°31' E 009°08'713.5
2017-Apr-20 11:30N 63°28' E 008°54'713.2
2017-Apr-20 10:59N 63°25' E 008°40'612.9
2017-Apr-20 10:29N 63°23' E 008°27'612.4
2017-Apr-20 10:00N 63°19' E 008°17'612.5
2017-Apr-20 09:30N 63°15' E 008°06'612.4
2017-Apr-20 09:00N 63°13' E 007°53'611.8
2017-Apr-20 08:30N 63°14' E 007°40'611.6
2017-Apr-20 08:00N 63°14' E 007°27'612.0
2017-Apr-20 07:30N 63°11' E 007°15'611.8
2017-Apr-20 07:00N 63°09' E 007°03'612.1
2017-Apr-20 06:30N 63°07' E 006°50'612.0
2017-Apr-20 06:00N 63°04' E 006°38'612.1
2017-Apr-20 05:30N 63°02' E 006°26'612.1
2017-Apr-20 05:00N 62°60' E 006°13'611.9
2017-Apr-20 04:30N 62°57' E 006°01'1911.5
2017-Apr-20 02:53N 62°46' E 005°29'512.1
2017-Apr-20 02:30N 62°43' E 005°22'612.4
2017-Apr-20 02:00N 62°38' E 005°13'23710.8
2017-Apr-19 04:08N 58°41' E 004°47'211.1
2017-Apr-19 03:59N 58°40' E 004°49'511.1
2017-Apr-19 03:30N 58°36' E 004°56'611.2
2017-Apr-19 03:00N 58°32' E 005°03'711.4
2017-Apr-19 02:24N 58°27' E 005°13'511.5
2017-Apr-19 02:00N 58°24' E 005°19'611.6
2017-Apr-19 01:30N 58°20' E 005°27'611.7
2017-Apr-19 01:00N 58°16' E 005°35'611.9
2017-Apr-19 00:30N 58°12' E 005°44'611.8
2017-Apr-19 00:00N 58°08' E 005°52'611.9
2017-Apr-18 23:30N 58°04' E 006°00'611.8
2017-Apr-18 23:00N 58°00' E 006°09'611.7
2017-Apr-18 22:30N 57°56' E 006°17'611.6
2017-Apr-18 22:00N 57°52' E 006°25'611.2
2017-Apr-18 21:30N 57°49' E 006°34'611.4
2017-Apr-18 20:59N 57°48' E 006°44'612.0
2017-Apr-18 20:30N 57°46' E 006°55'611.9
2017-Apr-18 20:00N 57°45' E 007°06'611.3
2017-Apr-18 19:30N 57°45' E 007°16'610.9
2017-Apr-18 19:00N 57°45' E 007°27'611.0
2017-Apr-18 18:30N 57°45' E 007°37'510.9
2017-Apr-18 18:00N 57°45' E 007°47'510.8
2017-Apr-18 17:30N 57°45' E 007°57'510.8
2017-Apr-18 17:00N 57°45' E 008°08'  
Track history (hours):
 
Tides and Currents Weather Stations Pressure Air Temp Water Temp Dewpoint Dewpoint Depression Visibility Wind Speed Wind Dir Waves Ship Positions

Kaprifol

Last reported at 2017-Apr-28 11:17 UTC. Time now 2017-Apr-28 12:23 UTC.
Position N 54°41' E 012°13'.

Length 90 m; draft 4.5 m.

Type: Tanker. MMSI: 210445000.

Date/timePositionNaut miles runAvg speedWind from/ knotsBaromVisibWave heightAir tempDewpointWater temp
2017-Apr-28 11:17N 54°41' E 012°13'310.4
2017-Apr-28 11:00N 54°38' E 012°14'510.1
2017-Apr-28 10:30N 54°33' E 012°15'13 9.8
2017-Apr-28 09:11N 54°21' E 012°07'210.2
2017-Apr-28 09:00N 54°19' E 012°06'510.4
2017-Apr-28 08:30N 54°14' E 012°05'5 6.7
2017-Apr-28 07:48N 54°10' E 012°08'0 0.1
2017-Apr-28 06:29N 54°10' E 012°08'0 0.0
2017-Apr-28 03:49N 54°10' E 012°08'0 0.0
2017-Apr-28 02:58N 54°10' E 012°08'0 0.0
2017-Apr-28 02:22N 54°10' E 012°08'0 0.0
2017-Apr-27 21:58N 54°10' E 012°08'0 0.0
2017-Apr-27 20:40N 54°10' E 012°08'0 0.0
2017-Apr-27 20:11N 54°10' E 012°08'0 1.2
2017-Apr-27 19:48N 54°10' E 012°08'1 2.7
2017-Apr-27 19:29N 54°10' E 012°06'6 8.7
2017-Apr-27 18:46N 54°15' E 012°02'310.4
2017-Apr-27 18:31N 54°18' E 012°01'510.7
2017-Apr-27 18:00N 54°22' E 012°07'510.4
2017-Apr-27 17:31N 54°27' E 012°10'611.4
2017-Apr-27 17:00N 54°33' E 012°13'510.6
2017-Apr-27 16:30N 54°37' E 012°18'510.7
2017-Apr-27 16:01N 54°40' E 012°25'5510.2
2017-Apr-27 10:38N 54°45' E 013°60'32 9.5
2017-Apr-27 07:12N 54°44' E 014°56'28 9.5
2017-Apr-27 04:12N 55°04' E 015°32'210.4
2017-Apr-27 04:01N 55°06' E 015°32'710.6
2017-Apr-27 03:23N 55°12' E 015°34'410.8
2017-Apr-27 03:00N 55°16' E 015°35'710.6
2017-Apr-27 02:22N 55°23' E 015°33'410.3
2017-Apr-27 02:00N 55°27' E 015°31'510.8
2017-Apr-27 01:30N 55°30' E 015°25'510.4
2017-Apr-27 00:59N 55°33' E 015°17'510.5
2017-Apr-27 00:29N 55°32' E 015°08'510.5
2017-Apr-27 00:00N 55°31' E 014°59'510.5
2017-Apr-26 23:30N 55°30' E 014°50'610.6
2017-Apr-26 22:59N 55°25' E 014°44'510.5
2017-Apr-26 22:30N 55°22' E 014°38'510.5
2017-Apr-26 21:59N 55°17' E 014°32'510.3
2017-Apr-26 21:30N 55°14' E 014°27'510.2
2017-Apr-26 21:00N 55°10' E 014°21'5 9.7
2017-Apr-26 20:30N 55°09' E 014°12'510.3
2017-Apr-26 20:00N 55°10' E 014°03'510.4
2017-Apr-26 19:30N 55°10' E 013°54'2010.4
2017-Apr-26 17:34N 55°12' E 013°19'110.4
2017-Apr-26 17:27N 55°12' E 013°17'510.3
2017-Apr-26 16:59N 55°12' E 013°08'510.5
2017-Apr-26 16:31N 55°13' E 012°60'510.7
2017-Apr-26 16:01N 55°15' E 012°51'511.0
2017-Apr-26 15:30N 55°17' E 012°42'4 8.9
2017-Apr-26 15:00N 55°21' E 012°39'510.3
2017-Apr-26 14:30N 55°26' E 012°40'9 9.5
2017-Apr-26 13:30N 55°36' E 012°42'4 9.0
2017-Apr-26 13:01N 55°40' E 012°41'5 9.9
2017-Apr-26 12:30N 55°45' E 012°41'510.2
2017-Apr-26 12:01N 55°50' E 012°40'510.3
2017-Apr-26 11:30N 55°55' E 012°38'510.4
2017-Apr-26 11:01N 56°00' E 012°38'4 9.0
2017-Apr-26 10:30N 56°05' E 012°36'510.4
2017-Apr-26 10:00N 56°08' E 012°28'75 4.1
2017-Apr-25 15:41N 56°09' E 010°14'0 0.0
2017-Apr-25 15:20N 56°09' E 010°14'0 0.0
2017-Apr-25 14:56N 56°09' E 010°14'0 0.0
2017-Apr-25 13:56N 56°09' E 010°14'0 0.0
2017-Apr-25 13:26N 56°09' E 010°14'0 0.0
2017-Apr-25 12:50N 56°09' E 010°14'0 0.0
2017-Apr-25 12:26N 56°09' E 010°14'0 0.0
2017-Apr-25 11:05N 56°09' E 010°14'0 0.0
2017-Apr-25 10:56N 56°09' E 010°14'0 0.0
2017-Apr-25 02:29N 56°09' E 010°14'0 0.1
2017-Apr-25 01:59N 56°09' E 010°14'0 0.2
2017-Apr-25 01:23N 56°09' E 010°14'1 1.9
2017-Apr-25 01:00N 56°10' E 010°15'4 8.0
2017-Apr-25 00:30N 56°08' E 010°21'5 9.9
2017-Apr-25 00:00N 56°06' E 010°29'5 9.5
2017-Apr-24 23:29N 56°05' E 010°39'7 8.6
2017-Apr-24 22:37N 56°11' E 010°47'110.1
2017-Apr-24 22:30N 56°12' E 010°48'60 7.4
2017-Apr-24 14:27N 57°05' E 011°40'910.0
2017-Apr-24 13:30N 57°14' E 011°34'510.0
2017-Apr-24 13:00N 57°18' E 011°30'510.2
2017-Apr-24 12:30N 57°23' E 011°27'510.0
2017-Apr-24 12:00N 57°28' E 011°24'510.7
2017-Apr-24 11:30N 57°32' E 011°17'510.4
2017-Apr-24 11:00N 57°35' E 011°10'510.5
2017-Apr-24 10:30N 57°39' E 011°03'510.4
2017-Apr-24 09:59N 57°42' E 010°55'510.2
2017-Apr-24 09:30N 57°46' E 010°49'510.5
2017-Apr-24 09:00N 57°47' E 010°40'9511.3
2017-Apr-24 00:37N 57°42' E 007°42'111.1
2017-Apr-24 00:30N 57°42' E 007°39'611.0
2017-Apr-24 00:00N 57°42' E 007°29'510.9
2017-Apr-23 23:30N 57°43' E 007°19'510.6
2017-Apr-23 23:00N 57°43' E 007°09'611.2
2017-Apr-23 22:29N 57°43' E 006°58'611.7
2017-Apr-23 22:00N 57°44' E 006°47'611.0
2017-Apr-23 21:28N 57°44' E 006°37'510.3
2017-Apr-23 21:00N 57°46' E 006°29'510.3
2017-Apr-23 20:30N 57°49' E 006°21'610.4
2017-Apr-23 19:56N 57°53' E 006°13'4 9.9
2017-Apr-23 19:30N 57°57' E 006°08'5 9.6
2017-Apr-23 19:00N 57°60' E 006°01'21 9.9
2017-Apr-23 16:51N 58°13' E 005°29'1310.1
2017-Apr-23 15:36N 58°22' E 005°12'310.1
2017-Apr-23 15:17N 58°24' E 005°08'310.2
2017-Apr-23 15:00N 58°26' E 005°04'610.3
2017-Apr-23 14:27N 58°30' E 004°57'910.0
2017-Apr-23 13:30N 58°37' E 004°44'510.3
2017-Apr-23 12:58N 58°41' E 004°37'510.6
2017-Apr-23 12:29N 58°45' E 004°30'233 9.4
2017-Apr-22 11:45N 62°37' E 005°10'2 9.0
2017-Apr-22 11:30N 62°38' E 005°13'5 9.0
2017-Apr-22 11:00N 62°42' E 005°20'4 9.1
2017-Apr-22 10:30N 62°45' E 005°27'5 9.5
2017-Apr-22 09:59N 62°48' E 005°34'33 8.7
2017-Apr-22 06:12N 63°09' E 006°31'2 8.1
2017-Apr-22 06:00N 63°10' E 006°34'4 7.9
2017-Apr-22 05:30N 63°11' E 006°42'4 7.5
2017-Apr-22 05:00N 63°11' E 006°51'4 7.6
2017-Apr-22 04:29N 63°12' E 006°59'4 7.8
2017-Apr-22 04:00N 63°13' E 007°07'4 7.6
2017-Apr-22 03:30N 63°13' E 007°16'4 7.5
2017-Apr-22 03:00N 63°14' E 007°24'4 7.4
2017-Apr-22 02:30N 63°15' E 007°32'4 7.8
2017-Apr-22 02:00N 63°14' E 007°40'5 9.1
2017-Apr-22 01:30N 63°13' E 007°50'510.0
2017-Apr-22 01:00N 63°15' E 008°01'510.3
2017-Apr-22 00:30N 63°17' E 008°11'510.6
2017-Apr-21 23:59N 63°21' E 008°20'510.0
2017-Apr-21 23:30N 63°24' E 008°29'5 9.8
2017-Apr-21 23:00N 63°26' E 008°39'5 9.8
2017-Apr-21 22:29N 63°27' E 008°50'5 9.8
2017-Apr-21 22:00N 63°29' E 008°60'5 9.5
2017-Apr-21 21:30N 63°31' E 009°09'4 8.9
2017-Apr-21 21:00N 63°34' E 009°16'510.9
2017-Apr-21 20:30N 63°40' E 009°15'510.1
2017-Apr-21 20:00N 63°44' E 009°22'510.4
2017-Apr-21 19:30N 63°46' E 009°32'510.3
2017-Apr-21 19:00N 63°51' E 009°38'5 9.1
2017-Apr-21 18:30N 63°53' E 009°48'2 4.7
2017-Apr-21 18:00N 63°53' E 009°53'0 0.6
2017-Apr-21 17:30N 63°53' E 009°52'0 0.0
2017-Apr-21 17:00N 63°53' E 009°52'0 0.0
2017-Apr-21 16:27N 63°53' E 009°52'0 0.0
2017-Apr-21 16:00N 63°53' E 009°52'0 0.0
2017-Apr-21 15:30N 63°53' E 009°52'0 0.0
2017-Apr-21 15:00N 63°53' E 009°52'0 0.0
2017-Apr-21 14:29N 63°53' E 009°52'0 0.0
2017-Apr-21 13:30N 63°53' E 009°52'0 0.0
2017-Apr-21 13:00N 63°53' E 009°52'0 0.0
2017-Apr-21 12:30N 63°53' E 009°52'0 0.0
2017-Apr-21 12:00N 63°53' E 009°52'0 0.0
2017-Apr-21 11:30N 63°53' E 009°52'0 0.0
2017-Apr-21 11:00N 63°53' E 009°52'0 0.0
2017-Apr-21 10:30N 63°53' E 009°52'0 0.0
2017-Apr-21 10:01N 63°53' E 009°52'0 0.0
2017-Apr-21 09:30N 63°53' E 009°52'0 0.0
2017-Apr-21 09:00N 63°53' E 009°52'0 0.0
2017-Apr-21 08:30N 63°53' E 009°52'0 0.0
2017-Apr-21 07:59N 63°53' E 009°52'0 0.0
2017-Apr-21 07:30N 63°53' E 009°52'0 0.0
2017-Apr-21 07:00N 63°53' E 009°52'0 0.0
2017-Apr-21 06:30N 63°53' E 009°52'0 0.0
2017-Apr-21 06:00N 63°53' E 009°52'0 0.0
2017-Apr-21 05:30N 63°53' E 009°52'0 0.0
2017-Apr-21 05:00N 63°53' E 009°52'0 0.0
2017-Apr-21 04:30N 63°53' E 009°52'0 0.0
2017-Apr-21 04:00N 63°53' E 009°52'0 0.0
2017-Apr-21 03:30N 63°53' E 009°52'0 0.0
2017-Apr-21 03:00N 63°53' E 009°52'0 0.0
2017-Apr-21 02:29N 63°53' E 009°52'0 0.0
2017-Apr-21 02:00N 63°53' E 009°52'0 0.0
2017-Apr-21 01:30N 63°53' E 009°52'0 0.0
2017-Apr-21 01:00N 63°53' E 009°52'0 0.0
2017-Apr-21 00:30N 63°53' E 009°52'0 0.0
2017-Apr-21 00:00N 63°53' E 009°52'0 0.0
2017-Apr-20 23:30N 63°53' E 009°52'0 0.0
2017-Apr-20 23:00N 63°53' E 009°52'0 0.0
2017-Apr-20 22:30N 63°53' E 009°52'0 0.0
2017-Apr-20 22:00N 63°53' E 009°52'0 0.0
2017-Apr-20 21:30N 63°53' E 009°52'0 0.0
2017-Apr-20 21:00N 63°53' E 009°52'0 0.0
2017-Apr-20 20:30N 63°53' E 009°52'0 0.0
2017-Apr-20 20:00N 63°53' E 009°52'0 0.0
2017-Apr-20 19:30N 63°53' E 009°52'0 0.0
2017-Apr-20 19:00N 63°53' E 009°52'0 0.0
2017-Apr-20 18:30N 63°53' E 009°52'0 0.0
2017-Apr-20 18:00N 63°53' E 009°52'0 0.0
2017-Apr-20 17:30N 63°53' E 009°52'0 0.0
2017-Apr-20 17:00N 63°53' E 009°52'0 0.0
2017-Apr-20 16:30N 63°53' E 009°52'0 0.0
2017-Apr-20 16:00N 63°53' E 009°52'0 0.0
2017-Apr-20 15:30N 63°53' E 009°52'1 2.2
2017-Apr-20 15:00N 63°54' E 009°53'5 9.3
2017-Apr-20 14:30N 63°52' E 009°43'1110.8
2017-Apr-20 13:30N 63°45' E 009°26'611.9
2017-Apr-20 13:00N 63°41' E 009°16'611.3
2017-Apr-20 12:30N 63°35' E 009°16'611.2
2017-Apr-20 12:00N 63°31' E 009°08'713.5
2017-Apr-20 11:30N 63°28' E 008°54'713.2
2017-Apr-20 10:59N 63°25' E 008°40'612.9
2017-Apr-20 10:29N 63°23' E 008°27'612.4
2017-Apr-20 10:00N 63°19' E 008°17'612.5
2017-Apr-20 09:30N 63°15' E 008°06'612.4
2017-Apr-20 09:00N 63°13' E 007°53'611.8
2017-Apr-20 08:30N 63°14' E 007°40'611.6
2017-Apr-20 08:00N 63°14' E 007°27'612.0
2017-Apr-20 07:30N 63°11' E 007°15'611.8
2017-Apr-20 07:00N 63°09' E 007°03'612.1
2017-Apr-20 06:30N 63°07' E 006°50'612.0
2017-Apr-20 06:00N 63°04' E 006°38'612.1
2017-Apr-20 05:30N 63°02' E 006°26'612.1
2017-Apr-20 05:00N 62°60' E 006°13'611.9
2017-Apr-20 04:30N 62°57' E 006°01'1911.5
2017-Apr-20 02:53N 62°46' E 005°29'512.1
2017-Apr-20 02:30N 62°43' E 005°22'612.4
2017-Apr-20 02:00N 62°38' E 005°13'23710.8
2017-Apr-19 04:08N 58°41' E 004°47'211.1
2017-Apr-19 03:59N 58°40' E 004°49'511.1
2017-Apr-19 03:30N 58°36' E 004°56'611.2
2017-Apr-19 03:00N 58°32' E 005°03'711.4
2017-Apr-19 02:24N 58°27' E 005°13'511.5
2017-Apr-19 02:00N 58°24' E 005°19'611.6
2017-Apr-19 01:30N 58°20' E 005°27'611.7
2017-Apr-19 01:00N 58°16' E 005°35'611.9
2017-Apr-19 00:30N 58°12' E 005°44'611.8
2017-Apr-19 00:00N 58°08' E 005°52'611.9
2017-Apr-18 23:30N 58°04' E 006°00'611.8
2017-Apr-18 23:00N 58°00' E 006°09'611.7
2017-Apr-18 22:30N 57°56' E 006°17'611.6
2017-Apr-18 22:00N 57°52' E 006°25'611.2
2017-Apr-18 21:30N 57°49' E 006°34'611.4
2017-Apr-18 20:59N 57°48' E 006°44'612.0
2017-Apr-18 20:30N 57°46' E 006°55'611.9
2017-Apr-18 20:00N 57°45' E 007°06'611.3
2017-Apr-18 19:30N 57°45' E 007°16'610.9
2017-Apr-18 19:00N 57°45' E 007°27'611.0
2017-Apr-18 18:30N 57°45' E 007°37'510.9
2017-Apr-18 18:00N 57°45' E 007°47'510.8
2017-Apr-18 17:30N 57°45' E 007°57'510.8
2017-Apr-18 17:00N 57°45' E 008°08'  

Dump ship's entire track history